createdAt,value
2019-05-05T00:00:57.980Z,93402.34
2019-05-05T00:30:49.437Z,93401.94
2019-05-05T00:45:51.014Z,93398.34
2019-05-05T01:30:57.423Z,93379.73
2019-05-05T01:45:50.519Z,93387.48
2019-05-05T02:00:49.968Z,93370.91
2019-05-05T02:15:49.814Z,93372.63
2019-05-05T03:30:55.770Z,93297.35
2019-05-05T03:45:58.705Z,93280.11
2019-05-05T04:30:49.134Z,93340.78
2019-05-05T04:45:58.638Z,93345.78
2019-05-05T05:00:50.760Z,93349.86
2019-05-05T05:15:49.524Z,93343.92
2019-05-05T05:30:50.139Z,93330.14
2019-05-05T05:45:51.468Z,93302.97
2019-05-05T06:00:49.886Z,93317.39
2019-05-05T06:15:50.743Z,93310.97
2019-05-05T06:30:49.640Z,93330.68
2019-05-05T06:45:51.241Z,93348.98
2019-05-05T07:00:49.562Z,93358.03
2019-05-05T07:15:54.448Z,93334.89
2019-05-05T07:30:51.025Z,93338.19
2019-05-05T07:45:48.843Z,93352.00
2019-05-05T08:00:49.921Z,93339.20
2019-05-05T08:15:59.095Z,93339.61
2019-05-05T08:45:49.091Z,93345.63
2019-05-05T09:00:50.614Z,93356.22
2019-05-05T09:15:49.415Z,93359.73
2019-05-05T09:30:51.064Z,93337.16
2019-05-05T09:45:49.294Z,93330.94
2019-05-05T10:00:49.784Z,93292.82
2019-05-05T10:15:49.251Z,93281.20
2019-05-05T10:30:49.161Z,93274.75
2019-05-05T10:45:49.250Z,93292.63
2019-05-05T11:15:49.744Z,93290.62
2019-05-05T11:30:51.041Z,93287.64
2019-05-05T11:45:51.694Z,93265.81
2019-05-05T12:00:50.030Z,93259.83
2019-05-05T12:15:53.695Z,93248.84
2019-05-05T12:30:50.049Z,93247.52
2019-05-05T12:46:00.370Z,93236.85
2019-05-05T13:15:49.894Z,93224.27
2019-05-05T13:30:49.340Z,93208.23
2019-05-05T13:45:59.586Z,93216.98
2019-05-05T14:00:54.615Z,93230.09
2019-05-05T14:15:49.124Z,93237.98
2019-05-05T14:30:54.283Z,93209.85
2019-05-05T14:45:49.486Z,93239.95
2019-05-05T15:00:55.780Z,93232.61
2019-05-05T15:15:50.991Z,93228.04
2019-05-05T15:30:51.090Z,93228.67
2019-05-05T15:45:49.484Z,93230.13
2019-05-05T16:00:55.462Z,93241.31
2019-05-05T16:15:51.139Z,93256.16
2019-05-05T16:30:49.298Z,93252.06
2019-05-05T16:45:51.038Z,93259.30
2019-05-05T17:00:50.732Z,93268.48
2019-05-05T17:15:53.692Z,93278.52
2019-05-05T17:30:51.864Z,93286.15
2019-05-05T17:45:57.479Z,93289.83
2019-05-05T18:00:56.965Z,93296.86
2019-05-05T18:15:57.140Z,93341.81
2019-05-05T18:30:49.777Z,93350.26
2019-05-05T19:15:53.893Z,93360.15
2019-05-05T19:30:55.248Z,93394.63
2019-05-05T19:45:56.415Z,93387.14
2019-05-05T20:00:49.021Z,93379.18
2019-05-05T20:15:55.478Z,93364.25
2019-05-05T20:30:56.523Z,93329.34
2019-05-05T21:00:55.036Z,93338.73
2019-05-05T21:15:50.968Z,93357.56
2019-05-05T21:30:49.585Z,93367.45
2019-05-05T21:45:54.876Z,93368.49
2019-05-05T22:00:56.853Z,93374.71
2019-05-05T22:30:57.506Z,93365.62
2019-05-05T22:45:51.175Z,93360.44
2019-05-05T23:00:55.384Z,93369.02
2019-05-05T23:30:54.712Z,93381.75
2019-05-05T23:45:55.576Z,93382.56
